sensor_id;sensor_type;location;lat;lon;timestamp;temperature;humidity
10278;DHT22;5184;51.376;7.148;2024-02-15T00:00:23;11.20;99.90
10278;DHT22;5184;51.376;7.148;2024-02-15T00:02:50;11.10;99.90
10278;DHT22;5184;51.376;7.148;2024-02-15T00:05:17;11.20;99.90
10278;DHT22;5184;51.376;7.148;2024-02-15T00:07:45;11.20;99.90
10278;DHT22;5184;51.376;7.148;2024-02-15T00:10:12;11.10;99.90
10278;DHT22;5184;51.376;7.148;2024-02-15T00:12:39;11.10;99.90
10278;DHT22;5184;51.376;7.148;2024-02-15T00:15:05;11.10;99.90
10278;DHT22;5184;51.376;7.148;2024-02-15T00:17:33;11.10;99.90
10278;DHT22;5184;51.376;7.148;2024-02-15T00:19:59;11.10;99.90
10278;DHT22;5184;51.376;7.148;2024-02-15T00:22:25;10.70;99.90
10278;DHT22;5184;51.376;7.148;2024-02-15T00:24:53;11.10;99.90
10278;DHT22;5184;51.376;7.148;2024-02-15T00:27:20;11.10;99.90
10278;DHT22;5184;51.376;7.148;2024-02-15T00:29:47;11.10;99.90
10278;DHT22;5184;51.376;7.148;2024-02-15T00:32:13;11.10;99.90
10278;DHT22;5184;51.376;7.148;2024-02-15T00:34:40;11.10;99.90
10278;DHT22;5184;51.376;7.148;2024-02-15T00:37:06;11.10;99.90
10278;DHT22;5184;51.376;7.148;2024-02-15T00:39:33;11.10;99.90
10278;DHT22;5184;51.376;7.148;2024-02-15T00:42:00;11.20;99.90
10278;DHT22;5184;51.376;7.148;2024-02-15T00:44:27;11.10;99.90
10278;DHT22;5184;51.376;7.148;2024-02-15T00:46:54;11.10;99.90
10278;DHT22;5184;51.376;7.148;2024-02-15T00:49:21;11.10;99.90
10278;DHT22;5184;51.376;7.148;2024-02-15T00:51:48;11.10;99.90
10278;DHT22;5184;51.376;7.148;2024-02-15T00:54:15;11.10;99.90
10278;DHT22;5184;51.376;7.148;2024-02-15T00:56:42;11.20;99.90
10278;DHT22;5184;51.376;7.148;2024-02-15T00:59:08;11.20;99.90
10278;DHT22;5184;51.376;7.148;2024-02-15T01:01:36;11.20;99.90
10278;DHT22;5184;51.376;7.148;2024-02-15T01:04:03;11.20;99.90
10278;DHT22;5184;51.376;7.148;2024-02-15T01:06:30;11.30;99.90
10278;DHT22;5184;51.376;7.148;2024-02-15T01:08:56;11.30;99.90
10278;DHT22;5184;51.376;7.148;2024-02-15T01:11:23;11.30;99.90
10278;DHT22;5184;51.376;7.148;2024-02-15T01:13:50;11.20;99.90
10278;DHT22;5184;51.376;7.148;2024-02-15T01:16:16;11.30;99.90
10278;DHT22;5184;51.376;7.148;2024-02-15T01:18:43;11.30;99.90
10278;DHT22;5184;51.376;7.148;2024-02-15T01:21:09;11.30;99.90
10278;DHT22;5184;51.376;7.148;2024-02-15T01:23:36;11.30;99.90
10278;DHT22;5184;51.376;7.148;2024-02-15T01:26:02;11.30;99.90
10278;DHT22;5184;51.376;7.148;2024-02-15T01:28:29;11.30;99.90
10278;DHT22;5184;51.376;7.148;2024-02-15T01:30:56;11.30;99.90
10278;DHT22;5184;51.376;7.148;2024-02-15T01:33:23;11.30;99.90
10278;DHT22;5184;51.376;7.148;2024-02-15T01:35:50;11.30;99.90
10278;DHT22;5184;51.376;7.148;2024-02-15T01:38:18;11.30;99.90
10278;DHT22;5184;51.376;7.148;2024-02-15T01:40:46;11.30;99.90
10278;DHT22;5184;51.376;7.148;2024-02-15T01:43:12;11.20;99.90
10278;DHT22;5184;51.376;7.148;2024-02-15T01:45:38;11.20;99.90
10278;DHT22;5184;51.376;7.148;2024-02-15T01:48:05;11.20;99.90
10278;DHT22;5184;51.376;7.148;2024-02-15T01:50:33;11.20;99.90
10278;DHT22;5184;51.376;7.148;2024-02-15T01:53:01;11.30;99.90
10278;DHT22;5184;51.376;7.148;2024-02-15T01:55:27;11.20;99.90
10278;DHT22;5184;51.376;7.148;2024-02-15T01:57:53;11.20;99.90
10278;DHT22;5184;51.376;7.148;2024-02-15T02:00:20;11.20;99.90
10278;DHT22;5184;51.376;7.148;2024-02-15T02:02:47;11.30;99.90
10278;DHT22;5184;51.376;7.148;2024-02-15T02:05:14;11.20;99.90
10278;DHT22;5184;51.376;7.148;2024-02-15T02:07:40;11.30;99.90
10278;DHT22;5184;51.376;7.148;2024-02-15T02:10:07;11.30;99.90
10278;DHT22;5184;51.376;7.148;2024-02-15T02:12:35;11.30;99.90
10278;DHT22;5184;51.376;7.148;2024-02-15T02:15:01;11.30;99.90
10278;DHT22;5184;51.376;7.148;2024-02-15T02:17:28;11.30;99.90
10278;DHT22;5184;51.376;7.148;2024-02-15T02:19:55;11.30;99.90
10278;DHT22;5184;51.376;7.148;2024-02-15T02:22:23;11.30;99.90
10278;DHT22;5184;51.376;7.148;2024-02-15T02:24:57;11.30;99.90
10278;DHT22;5184;51.376;7.148;2024-02-15T02:27:22;11.30;99.90
10278;DHT22;5184;51.376;7.148;2024-02-15T02:29:48;11.30;99.90
10278;DHT22;5184;51.376;7.148;2024-02-15T02:32:15;11.30;99.90
10278;DHT22;5184;51.376;7.148;2024-02-15T02:34:42;11.30;99.90
10278;DHT22;5184;51.376;7.148;2024-02-15T02:37:10;11.30;99.90
10278;DHT22;5184;51.376;7.148;2024-02-15T02:39:36;11.30;99.90
10278;DHT22;5184;51.376;7.148;2024-02-15T02:42:03;11.30;99.90
10278;DHT22;5184;51.376;7.148;2024-02-15T02:44:29;11.30;99.90
10278;DHT22;5184;51.376;7.148;2024-02-15T02:46:56;11.30;99.90
10278;DHT22;5184;51.376;7.148;2024-02-15T02:49:23;11.30;99.90
10278;DHT22;5184;51.376;7.148;2024-02-15T02:51:49;10.70;99.90
10278;DHT22;5184;51.376;7.148;2024-02-15T02:54:17;11.20;99.90
10278;DHT22;5184;51.376;7.148;2024-02-15T02:56:44;11.20;99.90
10278;DHT22;5184;51.376;7.148;2024-02-15T02:59:11;11.20;99.90
10278;DHT22;5184;51.376;7.148;2024-02-15T03:01:38;11.20;99.90
10278;DHT22;5184;51.376;7.148;2024-02-15T03:04:05;11.30;99.90
10278;DHT22;5184;51.376;7.148;2024-02-15T03:06:31;11.20;99.90
10278;DHT22;5184;51.376;7.148;2024-02-15T03:08:58;11.30;99.90
10278;DHT22;5184;51.376;7.148;2024-02-15T03:11:26;11.30;99.90
10278;DHT22;5184;51.376;7.148;2024-02-15T03:13:52;11.30;99.90
10278;DHT22;5184;51.376;7.148;2024-02-15T03:16:21;11.30;99.90
10278;DHT22;5184;51.376;7.148;2024-02-15T03:18:46;11.30;99.90
10278;DHT22;5184;51.376;7.148;2024-02-15T03:21:12;11.30;99.90
10278;DHT22;5184;51.376;7.148;2024-02-15T03:23:39;11.30;99.90
10278;DHT22;5184;51.376;7.148;2024-02-15T03:26:07;11.30;99.90
10278;DHT22;5184;51.376;7.148;2024-02-15T03:28:33;11.30;99.90
10278;DHT22;5184;51.376;7.148;2024-02-15T03:30:59;11.20;99.90
10278;DHT22;5184;51.376;7.148;2024-02-15T03:33:26;11.30;99.90
10278;DHT22;5184;51.376;7.148;2024-02-15T03:35:53;11.30;99.90
10278;DHT22;5184;51.376;7.148;2024-02-15T03:38:21;11.30;99.90
10278;DHT22;5184;51.376;7.148;2024-02-15T03:40:47;11.30;99.90
10278;DHT22;5184;51.376;7.148;2024-02-15T03:43:14;11.30;99.90
10278;DHT22;5184;51.376;7.148;2024-02-15T03:45:40;11.30;99.90
10278;DHT22;5184;51.376;7.148;2024-02-15T03:48:08;11.30;99.90
10278;DHT22;5184;51.376;7.148;2024-02-15T03:50:35;11.30;99.90
10278;DHT22;5184;51.376;7.148;2024-02-15T03:53:02;11.30;99.90
10278;DHT22;5184;51.376;7.148;2024-02-15T03:55:28;11.30;99.90
10278;DHT22;5184;51.376;7.148;2024-02-15T03:57:55;11.30;99.90
10278;DHT22;5184;51.376;7.148;2024-02-15T04:00:22;11.30;99.90
10278;DHT22;5184;51.376;7.148;2024-02-15T04:02:49;11.30;99.90
10278;DHT22;5184;51.376;7.148;2024-02-15T04:05:16;11.30;99.90
10278;DHT22;5184;51.376;7.148;2024-02-15T04:07:42;11.30;99.90
10278;DHT22;5184;51.376;7.148;2024-02-15T04:10:09;11.30;99.90
10278;DHT22;5184;51.376;7.148;2024-02-15T04:12:35;11.30;99.90
10278;DHT22;5184;51.376;7.148;2024-02-15T04:15:03;11.30;99.90
10278;DHT22;5184;51.376;7.148;2024-02-15T04:17:32;11.70;99.90
10278;DHT22;5184;51.376;7.148;2024-02-15T04:20:00;11.30;99.90
10278;DHT22;5184;51.376;7.148;2024-02-15T04:22:27;11.30;99.90
10278;DHT22;5184;51.376;7.148;2024-02-15T04:24:53;11.30;99.90
10278;DHT22;5184;51.376;7.148;2024-02-15T04:27:20;11.30;99.90
10278;DHT22;5184;51.376;7.148;2024-02-15T04:29:47;11.30;99.90
10278;DHT22;5184;51.376;7.148;2024-02-15T04:32:13;11.30;99.90
10278;DHT22;5184;51.376;7.148;2024-02-15T04:34:40;11.30;99.90
10278;DHT22;5184;51.376;7.148;2024-02-15T04:37:07;11.30;99.90
10278;DHT22;5184;51.376;7.148;2024-02-15T04:39:35;11.30;99.90
10278;DHT22;5184;51.376;7.148;2024-02-15T04:42:02;11.30;99.90
10278;DHT22;5184;51.376;7.148;2024-02-15T04:44:29;11.30;99.90
10278;DHT22;5184;51.376;7.148;2024-02-15T04:46:55;11.20;99.90
10278;DHT22;5184;51.376;7.148;2024-02-15T04:49:22;11.20;99.90
10278;DHT22;5184;51.376;7.148;2024-02-15T04:51:48;11.20;99.90
10278;DHT22;5184;51.376;7.148;2024-02-15T04:54:16;11.20;99.90
10278;DHT22;5184;51.376;7.148;2024-02-15T04:56:43;11.20;99.90
10278;DHT22;5184;51.376;7.148;2024-02-15T04:59:10;11.10;99.90
10278;DHT22;5184;51.376;7.148;2024-02-15T05:01:39;11.20;99.90
10278;DHT22;5184;51.376;7.148;2024-02-15T05:04:05;11.10;99.90
10278;DHT22;5184;51.376;7.148;2024-02-15T05:06:33;11.10;99.90
10278;DHT22;5184;51.376;7.148;2024-02-15T05:09:00;11.10;99.90
10278;DHT22;5184;51.376;7.148;2024-02-15T05:11:27;11.10;99.90
10278;DHT22;5184;51.376;7.148;2024-02-15T05:13:53;11.10;99.90
10278;DHT22;5184;51.376;7.148;2024-02-15T05:16:20;11.10;99.90
10278;DHT22;5184;51.376;7.148;2024-02-15T05:18:47;11.10;99.90
10278;DHT22;5184;51.376;7.148;2024-02-15T05:21:15;11.10;99.90
10278;DHT22;5184;51.376;7.148;2024-02-15T05:23:42;11.20;99.90
10278;DHT22;5184;51.376;7.148;2024-02-15T05:26:09;11.20;99.90
10278;DHT22;5184;51.376;7.148;2024-02-15T05:28:35;11.10;99.90
10278;DHT22;5184;51.376;7.148;2024-02-15T05:31:09;11.20;99.90
10278;DHT22;5184;51.376;7.148;2024-02-15T05:33:36;11.10;99.90
10278;DHT22;5184;51.376;7.148;2024-02-15T05:36:03;11.10;99.90
10278;DHT22;5184;51.376;7.148;2024-02-15T05:38:30;11.10;99.90
10278;DHT22;5184;51.376;7.148;2024-02-15T05:40:56;11.10;99.90
10278;DHT22;5184;51.376;7.148;2024-02-15T05:43:24;11.10;99.90
10278;DHT22;5184;51.376;7.148;2024-02-15T05:45:51;11.20;99.90
10278;DHT22;5184;51.376;7.148;2024-02-15T05:48:18;11.20;99.90
10278;DHT22;5184;51.376;7.148;2024-02-15T05:50:45;11.20;99.90
10278;DHT22;5184;51.376;7.148;2024-02-15T05:53:12;11.20;99.90
10278;DHT22;5184;51.376;7.148;2024-02-15T05:55:38;11.20;99.90
10278;DHT22;5184;51.376;7.148;2024-02-15T05:58:05;11.20;99.90
10278;DHT22;5184;51.376;7.148;2024-02-15T06:00:31;11.20;99.90
10278;DHT22;5184;51.376;7.148;2024-02-15T06:02:59;11.20;99.90
10278;DHT22;5184;51.376;7.148;2024-02-15T06:05:26;11.20;99.90
10278;DHT22;5184;51.376;7.148;2024-02-15T06:07:53;11.20;99.90
10278;DHT22;5184;51.376;7.148;2024-02-15T06:10:19;11.20;99.90
10278;DHT22;5184;51.376;7.148;2024-02-15T06:12:46;11.20;99.90
10278;DHT22;5184;51.376;7.148;2024-02-15T06:15:13;11.20;99.90
10278;DHT22;5184;51.376;7.148;2024-02-15T06:17:41;11.20;99.90
10278;DHT22;5184;51.376;7.148;2024-02-15T06:20:08;11.20;99.90
10278;DHT22;5184;51.376;7.148;2024-02-15T06:22:35;11.20;99.90
10278;DHT22;5184;51.376;7.148;2024-02-15T06:25:03;11.20;99.90
10278;DHT22;5184;51.376;7.148;2024-02-15T06:27:30;11.10;99.90
10278;DHT22;5184;51.376;7.148;2024-02-15T06:29:58;11.10;99.90
10278;DHT22;5184;51.376;7.148;2024-02-15T06:32:30;11.10;99.90
10278;DHT22;5184;51.376;7.148;2024-02-15T06:35:02;11.20;99.90
10278;DHT22;5184;51.376;7.148;2024-02-15T06:37:35;11.10;99.90
10278;DHT22;5184;51.376;7.148;2024-02-15T06:40:08;11.10;99.90
10278;DHT22;5184;51.376;7.148;2024-02-15T06:42:34;11.10;99.90
10278;DHT22;5184;51.376;7.148;2024-02-15T06:45:01;11.20;99.90
10278;DHT22;5184;51.376;7.148;2024-02-15T06:47:28;11.20;99.90
10278;DHT22;5184;51.376;7.148;2024-02-15T06:49:56;11.20;99.90
10278;DHT22;5184;51.376;7.148;2024-02-15T06:52:23;11.20;99.90
10278;DHT22;5184;51.376;7.148;2024-02-15T06:54:50;11.20;99.90
10278;DHT22;5184;51.376;7.148;2024-02-15T06:57:16;11.20;99.90
10278;DHT22;5184;51.376;7.148;2024-02-15T06:59:46;11.20;99.90
10278;DHT22;5184;51.376;7.148;2024-02-15T07:02:11;11.20;99.90
10278;DHT22;5184;51.376;7.148;2024-02-15T07:04:38;11.30;99.90
10278;DHT22;5184;51.376;7.148;2024-02-15T07:07:05;11.30;99.90
10278;DHT22;5184;51.376;7.148;2024-02-15T07:09:32;11.30;99.90
10278;DHT22;5184;51.376;7.148;2024-02-15T07:11:58;11.40;99.90
10278;DHT22;5184;51.376;7.148;2024-02-15T07:14:25;11.40;99.90
10278;DHT22;5184;51.376;7.148;2024-02-15T07:16:51;11.40;99.90
10278;DHT22;5184;51.376;7.148;2024-02-15T07:19:19;11.40;99.90
10278;DHT22;5184;51.376;7.148;2024-02-15T07:21:46;11.40;99.90
10278;DHT22;5184;51.376;7.148;2024-02-15T07:24:13;11.40;99.90
10278;DHT22;5184;51.376;7.148;2024-02-15T07:26:39;11.40;99.90
10278;DHT22;5184;51.376;7.148;2024-02-15T07:29:06;11.50;99.90
10278;DHT22;5184;51.376;7.148;2024-02-15T07:31:33;11.50;99.90
10278;DHT22;5184;51.376;7.148;2024-02-15T07:33:59;11.50;99.90
10278;DHT22;5184;51.376;7.148;2024-02-15T07:36:26;11.50;99.90
10278;DHT22;5184;51.376;7.148;2024-02-15T07:38:54;11.50;99.90
10278;DHT22;5184;51.376;7.148;2024-02-15T07:41:21;11.50;99.90
10278;DHT22;5184;51.376;7.148;2024-02-15T07:43:47;11.50;99.90
10278;DHT22;5184;51.376;7.148;2024-02-15T07:46:14;11.50;99.90
10278;DHT22;5184;51.376;7.148;2024-02-15T07:48:40;11.50;99.90
10278;DHT22;5184;51.376;7.148;2024-02-15T07:51:07;11.60;99.90
10278;DHT22;5184;51.376;7.148;2024-02-15T07:53:34;11.60;99.90
10278;DHT22;5184;51.376;7.148;2024-02-15T07:56:02;11.60;99.90
10278;DHT22;5184;51.376;7.148;2024-02-15T07:58:28;11.60;99.90
10278;DHT22;5184;51.376;7.148;2024-02-15T08:00:55;11.70;99.90
10278;DHT22;5184;51.376;7.148;2024-02-15T08:03:21;11.70;99.90
10278;DHT22;5184;51.376;7.148;2024-02-15T08:05:48;11.70;99.90
10278;DHT22;5184;51.376;7.148;2024-02-15T08:08:15;11.70;99.90
10278;DHT22;5184;51.376;7.148;2024-02-15T08:10:42;11.70;99.90
10278;DHT22;5184;51.376;7.148;2024-02-15T08:13:08;11.70;99.90
10278;DHT22;5184;51.376;7.148;2024-02-15T08:15:35;11.70;99.90
10278;DHT22;5184;51.376;7.148;2024-02-15T08:18:02;11.70;99.90
10278;DHT22;5184;51.376;7.148;2024-02-15T08:20:28;11.70;99.90
10278;DHT22;5184;51.376;7.148;2024-02-15T08:22:55;11.70;99.90
10278;DHT22;5184;51.376;7.148;2024-02-15T08:25:21;11.70;99.90
10278;DHT22;5184;51.376;7.148;2024-02-15T08:27:49;11.80;99.90
10278;DHT22;5184;51.376;7.148;2024-02-15T08:30:16;11.90;99.90
10278;DHT22;5184;51.376;7.148;2024-02-15T08:32:44;11.90;99.90
10278;DHT22;5184;51.376;7.148;2024-02-15T08:35:12;11.90;99.90
10278;DHT22;5184;51.376;7.148;2024-02-15T08:37:40;11.90;99.90
10278;DHT22;5184;51.376;7.148;2024-02-15T08:40:07;11.90;99.90
10278;DHT22;5184;51.376;7.148;2024-02-15T08:42:33;11.90;99.90
10278;DHT22;5184;51.376;7.148;2024-02-15T08:45:00;11.90;99.90
10278;DHT22;5184;51.376;7.148;2024-02-15T08:47:26;11.90;99.90
10278;DHT22;5184;51.376;7.148;2024-02-15T08:49:53;11.90;99.90
10278;DHT22;5184;51.376;7.148;2024-02-15T08:52:20;11.90;99.90
10278;DHT22;5184;51.376;7.148;2024-02-15T08:54:46;11.90;99.90
10278;DHT22;5184;51.376;7.148;2024-02-15T08:57:13;11.90;99.90
10278;DHT22;5184;51.376;7.148;2024-02-15T08:59:40;11.90;99.90
10278;DHT22;5184;51.376;7.148;2024-02-15T09:02:07;11.80;99.90
10278;DHT22;5184;51.376;7.148;2024-02-15T09:04:34;11.80;99.90
10278;DHT22;5184;51.376;7.148;2024-02-15T09:07:01;11.90;99.90
10278;DHT22;5184;51.376;7.148;2024-02-15T09:09:27;11.90;99.90
10278;DHT22;5184;51.376;7.148;2024-02-15T09:11:54;11.90;99.90
10278;DHT22;5184;51.376;7.148;2024-02-15T09:14:21;11.90;99.90
10278;DHT22;5184;51.376;7.148;2024-02-15T09:16:48;12.00;99.90
10278;DHT22;5184;51.376;7.148;2024-02-15T09:19:14;12.00;99.90
10278;DHT22;5184;51.376;7.148;2024-02-15T09:21:41;12.10;99.90
10278;DHT22;5184;51.376;7.148;2024-02-15T09:24:07;12.20;99.90
10278;DHT22;5184;51.376;7.148;2024-02-15T09:26:35;12.20;99.90
10278;DHT22;5184;51.376;7.148;2024-02-15T09:29:01;12.20;99.90
10278;DHT22;5184;51.376;7.148;2024-02-15T09:31:28;12.30;99.90
10278;DHT22;5184;51.376;7.148;2024-02-15T09:33:55;12.40;99.90
10278;DHT22;5184;51.376;7.148;2024-02-15T09:36:21;12.40;99.90
10278;DHT22;5184;51.376;7.148;2024-02-15T09:38:48;12.40;99.90
10278;DHT22;5184;51.376;7.148;2024-02-15T09:41:15;12.40;99.90
10278;DHT22;5184;51.376;7.148;2024-02-15T09:43:42;12.50;99.90
10278;DHT22;5184;51.376;7.148;2024-02-15T09:46:09;12.50;99.90
10278;DHT22;5184;51.376;7.148;2024-02-15T09:48:36;12.50;99.90
10278;DHT22;5184;51.376;7.148;2024-02-15T09:51:02;12.60;99.90
10278;DHT22;5184;51.376;7.148;2024-02-15T09:53:29;12.50;99.90
10278;DHT22;5184;51.376;7.148;2024-02-15T09:55:56;12.60;99.90
10278;DHT22;5184;51.376;7.148;2024-02-15T09:58:22;12.60;99.90
10278;DHT22;5184;51.376;7.148;2024-02-15T10:00:50;12.60;99.90
10278;DHT22;5184;51.376;7.148;2024-02-15T10:03:18;12.60;99.90
10278;DHT22;5184;51.376;7.148;2024-02-15T10:05:43;12.60;99.90
10278;DHT22;5184;51.376;7.148;2024-02-15T10:08:10;12.60;99.90
10278;DHT22;5184;51.376;7.148;2024-02-15T10:10:38;12.60;99.90
10278;DHT22;5184;51.376;7.148;2024-02-15T10:13:04;12.60;99.90
10278;DHT22;5184;51.376;7.148;2024-02-15T10:15:34;12.60;99.90
10278;DHT22;5184;51.376;7.148;2024-02-15T10:18:02;12.60;99.90
10278;DHT22;5184;51.376;7.148;2024-02-15T10:20:27;12.70;99.90
10278;DHT22;5184;51.376;7.148;2024-02-15T10:23:10;12.80;99.90
10278;DHT22;5184;51.376;7.148;2024-02-15T10:25:38;12.90;99.90
10278;DHT22;5184;51.376;7.148;2024-02-15T10:28:06;13.00;99.90
10278;DHT22;5184;51.376;7.148;2024-02-15T10:30:34;13.00;99.90
10278;DHT22;5184;51.376;7.148;2024-02-15T10:33:00;13.00;99.90
10278;DHT22;5184;51.376;7.148;2024-02-15T10:35:26;13.10;99.90
10278;DHT22;5184;51.376;7.148;2024-02-15T10:37:53;13.20;99.90
10278;DHT22;5184;51.376;7.148;2024-02-15T10:40:20;13.20;99.90
10278;DHT22;5184;51.376;7.148;2024-02-15T10:42:47;13.30;99.90
10278;DHT22;5184;51.376;7.148;2024-02-15T10:45:14;13.40;99.90
10278;DHT22;5184;51.376;7.148;2024-02-15T10:47:40;13.50;99.90
10278;DHT22;5184;51.376;7.148;2024-02-15T10:50:07;13.50;99.90
10278;DHT22;5184;51.376;7.148;2024-02-15T10:52:34;13.50;99.90
10278;DHT22;5184;51.376;7.148;2024-02-15T10:55:03;13.60;99.90
10278;DHT22;5184;51.376;7.148;2024-02-15T10:57:31;13.60;99.90
10278;DHT22;5184;51.376;7.148;2024-02-15T10:59:58;13.70;99.90
10278;DHT22;5184;51.376;7.148;2024-02-15T11:02:28;13.70;99.90
10278;DHT22;5184;51.376;7.148;2024-02-15T11:04:54;13.70;99.90
10278;DHT22;5184;51.376;7.148;2024-02-15T11:07:23;13.70;99.90
10278;DHT22;5184;51.376;7.148;2024-02-15T11:09:48;13.70;99.90
10278;DHT22;5184;51.376;7.148;2024-02-15T11:12:15;13.70;99.90
10278;DHT22;5184;51.376;7.148;2024-02-15T11:14:44;13.70;99.90
10278;DHT22;5184;51.376;7.148;2024-02-15T11:17:08;13.70;99.90
10278;DHT22;5184;51.376;7.148;2024-02-15T11:19:44;13.80;99.90
10278;DHT22;5184;51.376;7.148;2024-02-15T11:22:12;13.70;99.90
10278;DHT22;5184;51.376;7.148;2024-02-15T11:24:45;13.80;99.90
10278;DHT22;5184;51.376;7.148;2024-02-15T11:27:06;13.80;99.90
10278;DHT22;5184;51.376;7.148;2024-02-15T11:32:33;13.80;99.90
10278;DHT22;5184;51.376;7.148;2024-02-15T11:34:42;13.80;99.90
10278;DHT22;5184;51.376;7.148;2024-02-15T11:37:08;13.80;99.90
10278;DHT22;5184;51.376;7.148;2024-02-15T11:39:40;13.90;99.90
10278;DHT22;5184;51.376;7.148;2024-02-15T11:42:28;14.00;99.90
10278;DHT22;5184;51.376;7.148;2024-02-15T11:45:02;14.10;99.90
10278;DHT22;5184;51.376;7.148;2024-02-15T11:47:28;14.10;99.90
10278;DHT22;5184;51.376;7.148;2024-02-15T11:49:55;14.10;99.90
10278;DHT22;5184;51.376;7.148;2024-02-15T11:52:21;14.20;99.90
10278;DHT22;5184;51.376;7.148;2024-02-15T11:54:48;14.20;99.90
10278;DHT22;5184;51.376;7.148;2024-02-15T11:57:16;14.20;99.90
10278;DHT22;5184;51.376;7.148;2024-02-15T11:59:42;14.20;99.90
10278;DHT22;5184;51.376;7.148;2024-02-15T12:02:24;14.30;99.90
10278;DHT22;5184;51.376;7.148;2024-02-15T12:04:58;14.50;99.90
10278;DHT22;5184;51.376;7.148;2024-02-15T12:07:30;14.50;99.90
10278;DHT22;5184;51.376;7.148;2024-02-15T12:10:02;14.60;99.90
10278;DHT22;5184;51.376;7.148;2024-02-15T12:12:35;14.80;99.90
10278;DHT22;5184;51.376;7.148;2024-02-15T12:15:07;14.90;99.90
10278;DHT22;5184;51.376;7.148;2024-02-15T12:17:40;15.00;99.90
10278;DHT22;5184;51.376;7.148;2024-02-15T12:20:12;15.10;99.90
10278;DHT22;5184;51.376;7.148;2024-02-15T12:22:40;15.20;99.90
10278;DHT22;5184;51.376;7.148;2024-02-15T12:25:07;15.30;99.90
10278;DHT22;5184;51.376;7.148;2024-02-15T12:27:38;15.30;99.90
10278;DHT22;5184;51.376;7.148;2024-02-15T12:30:06;15.40;99.90
10278;DHT22;5184;51.376;7.148;2024-02-15T12:32:33;15.30;99.90
10278;DHT22;5184;51.376;7.148;2024-02-15T12:35:10;15.40;99.90
10278;DHT22;5184;51.376;7.148;2024-02-15T12:37:36;15.50;99.90
10278;DHT22;5184;51.376;7.148;2024-02-15T12:40:12;15.50;99.90
10278;DHT22;5184;51.376;7.148;2024-02-15T12:42:38;15.50;99.90
10278;DHT22;5184;51.376;7.148;2024-02-15T12:45:06;15.60;99.90
10278;DHT22;5184;51.376;7.148;2024-02-15T12:47:33;15.50;99.90
10278;DHT22;5184;51.376;7.148;2024-02-15T12:50:12;15.70;99.90
10278;DHT22;5184;51.376;7.148;2024-02-15T12:52:34;15.80;99.90
10278;DHT22;5184;51.376;7.148;2024-02-15T12:55:07;15.90;99.90
10278;DHT22;5184;51.376;7.148;2024-02-15T12:57:33;15.90;99.90
10278;DHT22;5184;51.376;7.148;2024-02-15T13:00:01;16.00;99.90
10278;DHT22;5184;51.376;7.148;2024-02-15T13:02:28;16.10;99.90
10278;DHT22;5184;51.376;7.148;2024-02-15T13:04:58;16.10;99.90
10278;DHT22;5184;51.376;7.148;2024-02-15T13:07:26;16.10;99.90
10278;DHT22;5184;51.376;7.148;2024-02-15T13:09:53;16.20;99.90
10278;DHT22;5184;51.376;7.148;2024-02-15T13:12:20;16.10;99.90
10278;DHT22;5184;51.376;7.148;2024-02-15T13:14:46;16.10;99.90
10278;DHT22;5184;51.376;7.148;2024-02-15T13:17:13;16.20;99.90
10278;DHT22;5184;51.376;7.148;2024-02-15T13:19:44;16.20;99.90
10278;DHT22;5184;51.376;7.148;2024-02-15T13:22:06;16.20;99.90
10278;DHT22;5184;51.376;7.148;2024-02-15T13:24:33;16.20;99.90
10278;DHT22;5184;51.376;7.148;2024-02-15T13:27:01;16.20;99.90
10278;DHT22;5184;51.376;7.148;2024-02-15T13:29:27;16.20;99.90
10278;DHT22;5184;51.376;7.148;2024-02-15T13:31:54;16.30;99.90
10278;DHT22;5184;51.376;7.148;2024-02-15T13:34:21;16.30;99.90
10278;DHT22;5184;51.376;7.148;2024-02-15T13:36:47;16.30;99.90
10278;DHT22;5184;51.376;7.148;2024-02-15T13:39:14;16.20;99.90
10278;DHT22;5184;51.376;7.148;2024-02-15T13:41:41;16.20;99.90
10278;DHT22;5184;51.376;7.148;2024-02-15T13:44:08;16.20;99.90
10278;DHT22;5184;51.376;7.148;2024-02-15T13:46:36;16.20;99.90
10278;DHT22;5184;51.376;7.148;2024-02-15T13:49:02;16.20;99.90
10278;DHT22;5184;51.376;7.148;2024-02-15T13:51:29;16.20;99.90
10278;DHT22;5184;51.376;7.148;2024-02-15T13:53:56;16.20;99.90
10278;DHT22;5184;51.376;7.148;2024-02-15T13:56:22;16.20;99.90
10278;DHT22;5184;51.376;7.148;2024-02-15T13:58:49;16.20;99.90
10278;DHT22;5184;51.376;7.148;2024-02-15T14:01:16;16.20;99.90
10278;DHT22;5184;51.376;7.148;2024-02-15T14:03:44;16.20;99.90
10278;DHT22;5184;51.376;7.148;2024-02-15T14:06:10;16.20;99.90
10278;DHT22;5184;51.376;7.148;2024-02-15T14:08:37;16.10;99.90
10278;DHT22;5184;51.376;7.148;2024-02-15T14:11:03;16.10;99.90
10278;DHT22;5184;51.376;7.148;2024-02-15T14:13:30;16.10;99.90
10278;DHT22;5184;51.376;7.148;2024-02-15T14:15:56;16.10;99.90
10278;DHT22;5184;51.376;7.148;2024-02-15T14:18:23;16.00;99.90
10278;DHT22;5184;51.376;7.148;2024-02-15T14:20:50;15.90;99.90
10278;DHT22;5184;51.376;7.148;2024-02-15T14:23:16;15.90;99.90
10278;DHT22;5184;51.376;7.148;2024-02-15T14:25:43;16.00;99.90
10278;DHT22;5184;51.376;7.148;2024-02-15T14:28:10;16.10;99.90
10278;DHT22;5184;51.376;7.148;2024-02-15T14:30:37;16.20;99.90
10278;DHT22;5184;51.376;7.148;2024-02-15T14:33:09;16.10;99.90
10278;DHT22;5184;51.376;7.148;2024-02-15T14:35:38;16.20;99.90
10278;DHT22;5184;51.376;7.148;2024-02-15T14:38:06;16.20;99.90
10278;DHT22;5184;51.376;7.148;2024-02-15T14:40:33;16.20;99.90
10278;DHT22;5184;51.376;7.148;2024-02-15T14:42:59;16.20;99.90
10278;DHT22;5184;51.376;7.148;2024-02-15T14:45:26;16.20;99.90
10278;DHT22;5184;51.376;7.148;2024-02-15T14:47:53;16.10;99.90
10278;DHT22;5184;51.376;7.148;2024-02-15T14:50:20;16.10;99.90
10278;DHT22;5184;51.376;7.148;2024-02-15T14:52:46;16.00;99.90
10278;DHT22;5184;51.376;7.148;2024-02-15T14:55:13;16.00;99.90
10278;DHT22;5184;51.376;7.148;2024-02-15T14:57:39;15.90;99.90
10278;DHT22;5184;51.376;7.148;2024-02-15T15:00:07;15.90;99.90
10278;DHT22;5184;51.376;7.148;2024-02-15T15:02:37;15.80;99.90
10278;DHT22;5184;51.376;7.148;2024-02-15T15:05:04;15.90;99.90
10278;DHT22;5184;51.376;7.148;2024-02-15T15:07:37;15.90;99.90
10278;DHT22;5184;51.376;7.148;2024-02-15T15:10:10;15.80;99.90
10278;DHT22;5184;51.376;7.148;2024-02-15T15:12:42;15.80;99.90
10278;DHT22;5184;51.376;7.148;2024-02-15T15:15:08;15.80;99.90
10278;DHT22;5184;51.376;7.148;2024-02-15T15:17:35;15.80;99.90
10278;DHT22;5184;51.376;7.148;2024-02-15T15:20:02;15.70;99.90
10278;DHT22;5184;51.376;7.148;2024-02-15T15:22:28;15.70;99.90
10278;DHT22;5184;51.376;7.148;2024-02-15T15:24:56;15.70;99.90
10278;DHT22;5184;51.376;7.148;2024-02-15T15:27:23;15.70;99.90
10278;DHT22;5184;51.376;7.148;2024-02-15T15:29:50;15.70;99.90
10278;DHT22;5184;51.376;7.148;2024-02-15T15:32:17;15.70;99.90
10278;DHT22;5184;51.376;7.148;2024-02-15T15:34:44;15.70;99.90
10278;DHT22;5184;51.376;7.148;2024-02-15T15:37:10;15.70;99.90
10278;DHT22;5184;51.376;7.148;2024-02-15T15:39:37;15.60;99.90
10278;DHT22;5184;51.376;7.148;2024-02-15T15:42:04;15.60;99.90
10278;DHT22;5184;51.376;7.148;2024-02-15T15:44:31;15.40;99.90
10278;DHT22;5184;51.376;7.148;2024-02-15T15:46:59;15.40;99.90